Time;durP1;ratioP1;P1;durP2;ratioP2;P2;SDS_P1;SDS_P2;PMS_P1;PMS_P2;Temp;Humidity;BMP_temperature;BMP_pressure;BME280_temperature;BME280_humidity;BME280_pressure;Samples;Min_cycle;Max_cycle;Signal;HPM_P1;HPM_P2
2022/07/04 00:00:35;;;;;;;4.13;3.83;;;24.10;1.00;;;;;;5046934;28;20177;-60
2022/07/04 00:03:01;;;;;;;4.80;4.27;;;24.10;1.00;;;;;;5035665;28;20180;-58
2022/07/04 00:05:27;;;;;;;5.20;4.80;;;24.10;1.00;;;;;;5048778;28;20238;-59
2022/07/04 00:07:52;;;;;;;5.10;4.63;;;24.00;1.00;;;;;;5030318;28;20188;-59
2022/07/04 00:10:20;;;;;;;4.93;4.53;;;23.90;1.00;;;;;;5038196;28;20199;-57
2022/07/04 00:12:46;;;;;;;4.63;4.23;;;23.80;1.00;;;;;;5027788;28;20193;-59
2022/07/04 00:15:12;;;;;;;4.90;4.50;;;23.70;1.00;;;;;;5039321;28;20475;-59
2022/07/04 00:17:38;;;;;;;4.33;3.93;;;23.80;1.00;;;;;;5030645;28;20447;-59
2022/07/04 00:20:05;;;;;;;4.83;4.53;;;23.90;1.00;;;;;;5042072;28;20793;-58
2022/07/04 00:22:31;;;;;;;4.80;4.33;;;23.80;1.00;;;;;;5034502;28;20211;-58
2022/07/04 00:24:56;;;;;;;4.73;4.43;;;23.70;1.00;;;;;;5039916;28;20930;-58
2022/07/04 00:27:22;;;;;;;4.80;4.50;;;23.80;1.00;;;;;;5040978;28;20196;-58
2022/07/04 00:29:47;;;;;;;4.93;4.53;;;23.70;1.00;;;;;;5046384;28;20187;-58
2022/07/04 00:32:13;;;;;;;4.53;4.20;;;23.70;1.00;;;;;;5046937;28;20196;-58
2022/07/04 00:34:39;;;;;;;4.90;4.50;;;23.50;1.00;;;;;;5030677;28;20239;-59
2022/07/04 00:37:04;;;;;;;4.80;4.40;;;23.50;1.00;;;;;;5040433;28;20189;-58
2022/07/04 00:39:30;;;;;;;4.77;4.37;;;23.50;1.00;;;;;;5031421;28;20527;-56
2022/07/04 00:41:56;;;;;;;5.37;4.87;;;23.40;1.00;;;;;;5043099;28;20193;-59
2022/07/04 00:44:21;;;;;;;4.77;4.37;;;23.50;1.00;;;;;;5033282;28;20235;-58
2022/07/04 00:46:47;;;;;;;4.40;4.00;;;23.50;1.00;;;;;;5036993;28;20193;-59
2022/07/04 00:49:15;;;;;;;4.53;3.93;;;23.50;1.00;;;;;;5035126;28;21268;-59
2022/07/04 00:51:42;;;;;;;3.90;3.60;;;23.60;1.00;;;;;;5041550;28;20454;-58
2022/07/04 00:54:10;;;;;;;4.50;4.10;;;23.80;1.00;;;;;;5031596;28;20490;-59
2022/07/04 00:56:38;;;;;;;4.03;3.73;;;23.90;1.00;;;;;;5035607;28;20435;-59
2022/07/04 00:59:04;;;;;;;3.70;3.40;;;24.00;1.00;;;;;;5040127;28;20986;-59
2022/07/04 01:01:30;;;;;;;5.30;3.63;;;23.90;1.00;;;;;;5048399;28;20431;-59
2022/07/04 01:03:56;;;;;;;3.80;3.50;;;23.90;1.00;;;;;;5037191;28;20524;-59
2022/07/04 01:06:22;;;;;;;3.53;3.23;;;23.90;1.00;;;;;;5032120;28;20276;-58
2022/07/04 01:08:48;;;;;;;3.83;3.53;;;23.60;1.00;;;;;;5033488;28;20530;-59
2022/07/04 01:11:15;;;;;;;4.30;3.30;;;23.50;1.00;;;;;;5045014;28;20196;-58
2022/07/04 01:13:41;;;;;;;4.00;3.60;;;23.40;1.00;;;;;;5029995;28;20196;-58
2022/07/04 01:16:07;;;;;;;3.43;3.13;;;23.30;1.00;;;;;;5034599;28;20447;-59
2022/07/04 01:18:33;;;;;;;3.97;3.67;;;23.10;1.00;;;;;;5049680;28;20516;-58
2022/07/04 01:20:59;;;;;;;3.87;3.57;;;23.00;1.00;;;;;;5044475;28;20440;-58
2022/07/04 01:23:24;;;;;;;3.67;3.47;;;23.00;1.00;;;;;;5027629;28;20189;-59
2022/07/04 01:25:50;;;;;;;3.70;3.37;;;22.80;1.00;;;;;;5036057;28;20734;-58
2022/07/04 01:28:18;;;;;;;4.70;3.20;;;22.70;1.00;;;;;;5033828;28;20672;-58
2022/07/04 01:30:44;;;;;;;5.00;3.40;;;22.70;1.00;;;;;;5031650;28;20220;-59
2022/07/04 01:33:09;;;;;;;2.93;2.73;;;22.70;1.00;;;;;;5039459;28;20446;-59
2022/07/04 01:35:35;;;;;;;3.40;3.10;;;22.60;1.00;;;;;;5044082;28;20242;-58
2022/07/04 01:38:01;;;;;;;3.07;2.77;;;22.60;1.00;;;;;;5045031;28;20233;-60
2022/07/04 01:40:27;;;;;;;4.03;2.93;;;22.60;1.00;;;;;;5037151;28;20272;-58
2022/07/04 01:42:52;;;;;;;3.53;2.93;;;22.50;1.00;;;;;;5032218;28;20664;-58
2022/07/04 01:45:18;;;;;;;3.73;2.90;;;22.50;1.00;;;;;;5045527;28;20533;-59
2022/07/04 01:47:44;;;;;;;3.10;2.90;;;22.50;1.00;;;;;;5052066;28;20180;-58
2022/07/04 01:50:13;;;;;;;5.50;3.00;;;22.50;1.00;;;;;;5031157;28;20195;-58
2022/07/04 01:52:42;;;;;;;3.00;2.70;;;22.60;1.00;;;;;;5037003;28;20230;-59
2022/07/04 01:55:09;;;;;;;2.90;2.70;;;22.50;1.00;;;;;;5041313;28;20478;-58
2022/07/04 01:57:35;;;;;;;3.77;3.10;;;22.50;1.00;;;;;;5043677;28;20442;-58
2022/07/04 02:02:44;;;;;;;3.00;2.80;;;22.30;1.00;;;;;;5027578;28;20247;-59
2022/07/04 02:05:10;;;;;;;3.50;2.77;;;22.30;1.00;;;;;;5033298;28;20451;-59
2022/07/04 02:07:36;;;;;;;3.23;2.93;;;22.30;1.00;;;;;;5034948;28;20638;-58
2022/07/04 02:10:02;;;;;;;2.70;2.50;;;22.40;1.00;;;;;;5038673;28;20272;-58
2022/07/04 02:15:12;;;;;;;3.57;3.20;;;22.30;1.00;;;;;;5038876;28;20493;-58
2022/07/04 02:17:38;;;;;;;2.80;2.60;;;22.10;1.00;;;;;;5036368;28;20455;-59
2022/07/04 02:20:06;;;;;;;3.03;2.83;;;22.10;1.00;;;;;;5041944;28;20257;-59
2022/07/04 02:22:32;;;;;;;3.40;3.10;;;22.00;1.00;;;;;;5032208;28;20726;-58
2022/07/04 02:24:57;;;;;;;2.90;2.70;;;21.90;1.00;;;;;;5023785;28;20458;-59
2022/07/04 02:27:23;;;;;;;3.67;3.00;;;21.90;1.00;;;;;;5021836;28;20666;-59
2022/07/04 02:29:48;;;;;;;3.20;2.90;;;21.90;1.00;;;;;;5031418;28;20211;-58
2022/07/04 02:32:14;;;;;;;3.50;3.10;;;21.90;1.00;;;;;;5042966;28;20193;-57
2022/07/04 02:34:40;;;;;;;3.73;3.30;;;21.80;1.00;;;;;;5032540;28;20201;-58
2022/07/04 02:37:05;;;;;;;2.73;2.53;;;21.80;1.00;;;;;;5037290;28;20233;-59
2022/07/04 02:39:31;;;;;;;3.00;2.80;;;21.90;1.00;;;;;;5049351;28;20184;-58
2022/07/04 02:41:57;;;;;;;3.53;2.60;;;21.80;1.00;;;;;;5039007;28;20183;-57
2022/07/04 02:44:22;;;;;;;3.17;2.90;;;21.80;1.00;;;;;;5031871;28;20184;-59
2022/07/04 02:46:48;;;;;;;2.67;2.33;;;21.80;1.00;;;;;;5037388;28;20217;-59
2022/07/04 02:49:13;;;;;;;4.23;2.60;;;21.80;1.00;;;;;;5038730;28;20250;-59
2022/07/04 02:51:39;;;;;;;3.20;2.90;;;21.70;1.00;;;;;;5032041;28;20185;-58
2022/07/04 02:54:05;;;;;;;3.07;2.87;;;21.60;1.00;;;;;;5031072;28;20299;-59
2022/07/04 02:56:31;;;;;;;3.50;3.20;;;21.60;1.00;;;;;;5040365;28;20678;-57
2022/07/04 02:58:56;;;;;;;5.50;2.73;;;21.60;1.00;;;;;;5036605;28;20193;-59
2022/07/04 03:01:24;;;;;;;4.43;3.00;;;21.50;1.00;;;;;;5034304;28;20289;-58
2022/07/04 03:03:49;;;;;;;2.80;2.53;;;21.50;1.00;;;;;;5032193;28;20220;-58
2022/07/04 03:06:15;;;;;;;4.30;2.80;;;21.50;1.00;;;;;;5031359;28;20951;-58
2022/07/04 03:08:41;;;;;;;3.13;2.83;;;21.50;1.00;;;;;;5037021;28;20254;-58
2022/07/04 03:11:07;;;;;;;3.20;2.80;;;21.50;1.00;;;;;;5038463;28;20198;-58
2022/07/04 03:13:33;;;;;;;3.00;2.80;;;21.50;1.00;;;;;;5031795;28;20912;-58
2022/07/04 03:15:59;;;;;;;3.60;3.30;;;21.50;1.00;;;;;;5033557;28;20244;-60
2022/07/04 03:18:25;;;;;;;3.43;3.10;;;21.50;1.00;;;;;;5037647;28;20189;-59
2022/07/04 03:20:51;;;;;;;3.07;2.87;;;21.10;1.00;;;;;;5042218;28;20192;-58
2022/07/04 03:23:16;;;;;;;3.03;2.80;;;21.40;1.00;;;;;;5029088;28;20458;-59
2022/07/04 03:25:43;;;;;;;3.00;2.80;;;21.50;1.00;;;;;;5031980;28;20742;-59
2022/07/04 03:28:08;;;;;;;3.77;3.47;;;21.50;1.00;;;;;;5033184;28;20990;-58
2022/07/04 03:30:35;;;;;;;2.83;2.63;;;21.50;1.00;;;;;;5034538;28;20490;-58
2022/07/04 03:33:00;;;;;;;4.77;3.00;;;21.40;1.00;;;;;;5031653;28;20626;-59
2022/07/04 03:35:26;;;;;;;3.20;2.90;;;21.60;1.00;;;;;;5032939;28;20485;-58
2022/07/04 03:37:52;;;;;;;3.10;2.83;;;21.80;1.00;;;;;;5037375;28;20189;-59
2022/07/04 03:40:19;;;;;;;3.43;2.77;;;21.90;1.00;;;;;;5035939;28;20552;-58
2022/07/04 03:42:45;;;;;;;2.90;2.70;;;21.90;1.00;;;;;;5031795;28;20447;-58
2022/07/04 03:45:11;;;;;;;3.40;2.60;;;21.90;1.00;;;;;;5031468;28;20443;-58
2022/07/04 03:47:36;;;;;;;2.90;2.70;;;22.00;1.00;;;;;;5030403;28;20667;-58
2022/07/04 03:50:03;;;;;;;2.80;2.60;;;22.00;1.00;;;;;;5034858;28;20194;-58
2022/07/04 03:52:28;;;;;;;3.00;2.80;;;22.00;1.00;;;;;;5031706;28;20192;-58
2022/07/04 03:54:54;;;;;;;2.73;2.53;;;22.00;1.00;;;;;;5030971;28;20517;-59
2022/07/04 03:57:20;;;;;;;3.53;3.03;;;21.90;1.00;;;;;;5037606;28;20192;-59
2022/07/04 03:59:46;;;;;;;3.10;2.80;;;21.70;1.00;;;;;;5040196;28;20180;-58
2022/07/04 04:02:11;;;;;;;3.93;2.73;;;21.60;1.00;;;;;;5048260;28;20442;-59
2022/07/04 04:07:21;;;;;;;3.33;3.00;;;21.40;1.00;;;;;;5045022;28;20202;-58
2022/07/04 04:09:46;;;;;;;2.93;2.73;;;21.50;1.00;;;;;;5037536;28;20439;-59
2022/07/04 04:12:12;;;;;;;2.57;2.43;;;21.60;1.00;;;;;;5029386;28;20287;-60
2022/07/04 04:14:38;;;;;;;4.77;3.10;;;21.60;1.00;;;;;;5030136;28;20225;-61
2022/07/04 04:17:04;;;;;;;3.60;3.30;;;21.60;1.00;;;;;;5029856;28;20257;-60
2022/07/04 04:19:29;;;;;;;3.20;3.00;;;21.50;1.00;;;;;;5029824;28;20210;-61
2022/07/04 04:21:55;;;;;;;3.73;3.40;;;21.50;1.00;;;;;;5025549;28;20447;-60
2022/07/04 04:24:20;;;;;;;3.10;2.90;;;21.40;1.00;;;;;;5031026;28;20664;-60
2022/07/04 04:26:46;;;;;;;3.50;2.73;;;21.30;1.00;;;;;;5029700;28;20208;-60
2022/07/04 04:29:12;;;;;;;3.30;3.00;;;21.30;1.00;;;;;;5030131;28;20579;-60
2022/07/04 04:31:37;;;;;;;3.67;3.37;;;21.30;1.00;;;;;;5029162;28;20236;-60
2022/07/04 04:34:03;;;;;;;4.27;3.87;;;21.30;1.00;;;;;;5028210;28;20209;-60
2022/07/04 04:36:29;;;;;;;5.50;3.50;;;21.40;1.00;;;;;;5029631;28;20188;-60
2022/07/04 04:38:55;;;;;;;3.77;3.47;;;21.30;1.00;;;;;;5029148;28;20188;-60
2022/07/04 04:41:20;;;;;;;3.73;3.43;;;21.30;1.00;;;;;;5031805;28;20443;-60
2022/07/04 04:43:46;;;;;;;3.77;3.57;;;21.40;1.00;;;;;;5028978;28;20183;-59
2022/07/04 04:46:11;;;;;;;3.73;2.97;;;21.50;1.00;;;;;;5029548;28;20212;-59
2022/07/04 04:48:37;;;;;;;3.70;3.27;;;21.50;1.00;;;;;;5029629;28;20188;-59
2022/07/04 04:51:08;;;;;;;7.10;3.77;;;21.70;1.00;;;;;;5035028;28;20234;-58
2022/07/04 04:53:34;;;;;;;5.97;3.60;;;21.70;1.00;;;;;;5030977;28;20249;-59
2022/07/04 04:56:00;;;;;;;3.63;3.33;;;21.90;1.00;;;;;;5029968;28;20459;-58
2022/07/04 04:58:25;;;;;;;3.70;3.37;;;22.00;1.00;;;;;;5030256;28;20538;-57
2022/07/04 05:00:51;;;;;;;5.30;4.70;;;21.80;1.00;;;;;;5029585;28;20169;-60
2022/07/04 05:03:17;;;;;;;3.93;3.63;;;21.60;1.00;;;;;;5039491;28;20173;-59
2022/07/04 05:05:43;;;;;;;6.90;5.07;;;21.40;1.00;;;;;;5038850;28;20230;-58
2022/07/04 05:08:09;;;;;;;6.67;4.70;;;21.30;1.00;;;;;;5033181;28;20483;-59
2022/07/04 05:10:35;;;;;;;4.80;4.33;;;20.90;1.00;;;;;;5027225;28;20498;-60
2022/07/04 05:13:02;;;;;;;4.93;4.60;;;20.90;1.00;;;;;;5040654;28;20217;-57
2022/07/04 05:15:27;;;;;;;5.10;4.50;;;20.80;1.00;;;;;;5030997;28;20513;-59
2022/07/04 05:17:53;;;;;;;7.20;4.63;;;20.70;1.00;;;;;;5028660;28;20438;-58
2022/07/04 05:20:18;;;;;;;5.13;4.63;;;20.80;1.00;;;;;;5030200;28;20658;-59
2022/07/04 05:22:44;;;;;;;5.27;4.77;;;21.00;1.00;;;;;;5028960;28;20187;-58
2022/07/04 05:25:09;;;;;;;5.10;4.70;;;21.00;1.00;;;;;;5035087;28;20192;-59
2022/07/04 05:27:37;;;;;;;6.63;5.13;;;21.00;1.00;;;;;;5028327;28;20188;-59
2022/07/04 05:30:03;;;;;;;5.53;4.40;;;21.20;1.00;;;;;;5029426;28;20235;-58
2022/07/04 05:32:29;;;;;;;7.77;5.30;;;21.30;1.00;;;;;;5033284;28;20431;-58
2022/07/04 05:34:54;;;;;;;5.27;4.43;;;21.50;1.00;;;;;;5029790;28;20486;-60
2022/07/04 05:37:20;;;;;;;5.03;4.23;;;21.40;1.00;;;;;;5029862;28;20181;-58
2022/07/04 05:39:46;;;;;;;6.00;4.37;;;21.60;1.00;;;;;;5030093;28;20181;-58
2022/07/04 05:42:12;;;;;;;4.90;4.53;;;21.70;1.00;;;;;;5029675;28;20208;-61
2022/07/04 05:44:38;;;;;;;5.23;4.60;;;21.80;1.00;;;;;;5029663;28;20463;-60
2022/07/04 05:47:04;;;;;;;6.10;4.70;;;21.80;1.00;;;;;;5029429;28;20264;-59
2022/07/04 05:49:29;;;;;;;4.93;4.43;;;21.70;1.00;;;;;;5029353;28;20416;-59
2022/07/04 05:51:55;;;;;;;5.53;4.93;;;21.90;1.00;;;;;;5029796;28;20937;-59
2022/07/04 05:54:20;;;;;;;4.70;4.30;;;22.00;1.00;;;;;;5029461;28;20223;-59
2022/07/04 05:56:46;;;;;;;4.87;4.47;;;22.00;1.00;;;;;;5029878;28;20263;-59
2022/07/04 05:59:11;;;;;;;4.80;4.30;;;22.00;1.00;;;;;;5032467;28;20819;-59
2022/07/04 06:01:37;;;;;;;4.87;4.40;;;22.00;1.00;;;;;;5029437;28;20177;-59
2022/07/04 06:04:04;;;;;;;5.13;4.37;;;22.10;1.00;;;;;;5029720;28;20631;-59
2022/07/04 06:06:30;;;;;;;4.60;4.20;;;22.40;1.00;;;;;;5029366;28;20188;-59
2022/07/04 06:09:00;;;;;;;4.70;4.40;;;22.50;1.00;;;;;;5035318;28;20431;-59
2022/07/04 06:11:25;;;;;;;4.93;4.50;;;22.50;1.00;;;;;;5037927;28;20773;-59
2022/07/04 06:13:51;;;;;;;4.53;3.90;;;22.50;1.00;;;;;;5031354;28;20428;-59
2022/07/04 06:16:17;;;;;;;4.73;4.30;;;22.60;1.00;;;;;;5034770;28;20192;-60
2022/07/04 06:18:43;;;;;;;18.03;14.93;;;22.70;1.00;;;;;;5033312;28;20642;-59
2022/07/04 06:21:08;;;;;;;6.53;4.20;;;22.80;1.00;;;;;;5033271;28;20177;-58
2022/07/04 06:23:35;;;;;;;4.73;3.93;;;23.00;1.00;;;;;;5033015;28;20936;-60
2022/07/04 06:26:00;;;;;;;5.00;4.60;;;23.10;1.00;;;;;;5033215;28;20181;-59
2022/07/04 06:28:26;;;;;;;4.50;4.20;;;23.00;1.00;;;;;;5032925;28;20440;-59
2022/07/04 06:30:52;;;;;;;4.27;3.97;;;23.10;1.00;;;;;;5032732;28;20250;-58
2022/07/04 06:33:18;;;;;;;3.87;3.57;;;23.10;1.00;;;;;;5032760;28;20192;-60
2022/07/04 06:35:44;;;;;;;6.73;4.10;;;23.30;1.00;;;;;;5032822;28;20582;-59
2022/07/04 06:38:13;;;;;;;4.10;3.80;;;23.30;1.00;;;;;;5033085;28;20562;-59
2022/07/04 06:40:40;;;;;;;3.87;3.40;;;23.40;1.00;;;;;;5032585;28;20439;-59
2022/07/04 06:43:05;;;;;;;4.10;3.80;;;23.40;1.00;;;;;;5033279;28;20446;-59
2022/07/04 06:45:33;;;;;;;4.40;3.60;;;23.60;1.00;;;;;;5032463;28;20443;-59
2022/07/04 06:47:59;;;;;;;4.10;3.73;;;23.60;1.00;;;;;;5032574;28;20451;-58
2022/07/04 06:50:25;;;;;;;3.60;3.40;;;23.70;1.00;;;;;;5032639;28;20966;-59
2022/07/04 06:52:52;;;;;;;4.33;3.80;;;23.90;1.00;;;;;;5032410;28;20449;-60
2022/07/04 06:55:36;;;;;;;5.53;3.60;;;23.90;1.00;;;;;;5032657;28;20208;-58
2022/07/04 06:58:02;;;;;;;4.43;4.10;;;24.10;1.00;;;;;;5032728;28;20438;-61
2022/07/04 07:00:30;;;;;;;5.10;4.10;;;24.30;1.00;;;;;;5032507;28;20785;-60
2022/07/04 07:02:59;;;;;;;4.27;3.97;;;24.20;1.00;;;;;;5032589;28;20631;-60
2022/07/04 07:05:28;;;;;;;3.77;3.40;;;24.10;1.00;;;;;;5032370;28;20462;-60
2022/07/04 07:07:55;;;;;;;3.97;3.67;;;24.20;1.00;;;;;;5032730;28;21019;-59
2022/07/04 07:10:21;;;;;;;4.60;3.47;;;24.10;1.00;;;;;;5032226;28;20936;-59
2022/07/04 07:12:47;;;;;;;3.70;3.40;;;24.20;1.00;;;;;;5032400;28;20936;-59
2022/07/04 07:15:13;;;;;;;4.50;3.43;;;24.30;1.00;;;;;;5031781;28;20459;-59
2022/07/04 07:17:39;;;;;;;4.73;4.30;;;24.10;1.00;;;;;;5032147;28;20936;-59
2022/07/04 07:20:06;;;;;;;4.37;3.67;;;24.40;1.00;;;;;;5031986;28;20474;-59
2022/07/04 07:22:32;;;;;;;3.70;3.30;;;24.70;1.00;;;;;;5032150;28;20979;-58
2022/07/04 07:24:57;;;;;;;4.03;3.63;;;24.60;1.00;;;;;;5031730;28;20447;-59
2022/07/04 07:27:23;;;;;;;4.20;3.20;;;24.70;1.00;;;;;;5034473;28;20185;-59
2022/07/04 07:29:48;;;;;;;5.00;4.60;;;24.70;1.00;;;;;;5030675;28;20193;-59
2022/07/04 07:32:14;;;;;;;6.83;4.57;;;24.80;1.00;;;;;;5032013;28;20185;-59
2022/07/04 07:34:40;;;;;;;3.30;3.10;;;25.00;1.00;;;;;;5031949;28;20200;-59
2022/07/04 07:37:06;;;;;;;4.60;3.53;;;24.80;1.00;;;;;;5031532;28;20211;-59
2022/07/04 07:39:32;;;;;;;3.97;3.10;;;24.90;1.00;;;;;;5031924;28;20185;-59
2022/07/04 07:41:58;;;;;;;3.87;3.40;;;24.70;1.00;;;;;;5031448;28;20420;-58
2022/07/04 07:44:23;;;;;;;5.17;3.20;;;24.80;1.00;;;;;;5033559;28;20192;-58
2022/07/04 07:46:49;;;;;;;5.10;4.70;;;24.90;1.00;;;;;;5032941;28;20191;-59
2022/07/04 07:49:15;;;;;;;4.23;3.93;;;25.00;1.00;;;;;;5030113;28;20689;-59
2022/07/04 07:51:40;;;;;;;3.20;3.00;;;24.90;1.00;;;;;;5031638;28;20207;-60
2022/07/04 07:54:06;;;;;;;3.50;3.13;;;24.80;1.00;;;;;;5049510;28;20195;-59
2022/07/04 07:56:32;;;;;;;4.03;3.50;;;24.80;1.00;;;;;;5051440;28;20183;-59
2022/07/04 07:58:57;;;;;;;3.10;2.90;;;24.80;1.00;;;;;;5050495;28;20601;-59
2022/07/04 08:01:23;;;;;;;3.70;3.40;;;24.60;1.00;;;;;;5031663;28;20212;-60
2022/07/04 08:06:34;;;;;;;3.47;3.20;;;25.00;1.00;;;;;;5031380;28;20207;-59
2022/07/04 08:08:59;;;;;;;3.30;3.10;;;24.90;1.00;;;;;;5033074;28;20438;-59
2022/07/04 08:11:25;;;;;;;3.10;2.90;;;24.80;1.00;;;;;;5031156;28;20443;-59
2022/07/04 08:13:51;;;;;;;4.93;3.87;;;25.00;1.00;;;;;;5030922;28;20189;-60
2022/07/04 08:16:17;;;;;;;3.90;3.10;;;25.00;1.00;;;;;;5035768;28;20185;-59
2022/07/04 08:18:43;;;;;;;3.50;3.20;;;25.10;1.00;;;;;;5031313;28;20879;-59
2022/07/04 08:21:09;;;;;;;3.03;2.77;;;25.20;1.00;;;;;;5031027;28;20446;-58
2022/07/04 08:23:35;;;;;;;4.40;2.70;;;25.20;1.00;;;;;;5030901;28;20424;-59
2022/07/04 08:26:02;;;;;;;3.67;3.40;;;25.10;1.00;;;;;;5030752;28;20462;-59
2022/07/04 08:28:28;;;;;;;2.93;2.73;;;25.10;1.00;;;;;;5031592;28;20791;-59
2022/07/04 08:30:56;;;;;;;7.10;2.70;;;24.90;1.00;;;;;;5031024;28;20469;-59
2022/07/04 08:33:22;;;;;;;3.13;2.73;;;25.20;1.00;;;;;;5030816;28;20909;-59
2022/07/04 08:35:48;;;;;;;4.60;4.00;;;25.30;1.00;;;;;;5030124;28;20470;-59
2022/07/04 08:38:13;;;;;;;8.23;3.80;;;25.50;1.00;;;;;;5029883;28;20192;-59
2022/07/04 08:40:40;;;;;;;3.90;3.57;;;25.70;1.00;;;;;;5030685;28;20458;-60
2022/07/04 08:43:06;;;;;;;3.40;3.10;;;25.80;1.00;;;;;;5030578;28;20192;-59
2022/07/04 08:45:33;;;;;;;4.80;3.87;;;25.90;1.00;;;;;;5033587;28;20450;-59
2022/07/04 08:48:07;;;;;;;6.30;4.03;;;26.00;1.00;;;;;;5030548;28;20184;-59
2022/07/04 08:50:37;;;;;;;3.43;3.13;;;25.80;1.00;;;;;;5030166;28;20438;-59
2022/07/04 08:53:09;;;;;;;3.70;3.40;;;26.00;1.00;;;;;;5030573;28;20821;-58
2022/07/04 08:58:26;;;;;;;4.53;3.70;;;26.30;1.00;;;;;;5030361;28;20531;-58
2022/07/04 09:01:18;;;;;;;4.63;3.77;;;25.70;1.00;;;;;;5030336;28;20435;-58
2022/07/04 09:03:45;;;;;;;4.07;3.40;;;25.60;1.00;;;;;;5030450;28;20432;-59
2022/07/04 09:06:11;;;;;;;3.40;3.20;;;25.80;1.00;;;;;;5030179;28;20535;-58
2022/07/04 09:08:38;;;;;;;3.07;2.77;;;25.90;1.00;;;;;;5029944;28;20489;-58
2022/07/04 09:11:07;;;;;;;4.87;2.63;;;26.00;1.00;;;;;;5029990;28;20530;-59
2022/07/04 09:13:32;;;;;;;3.67;3.37;;;26.10;1.00;;;;;;5030484;28;20451;-59
2022/07/04 09:15:59;;;;;;;6.90;2.60;;;26.10;1.00;;;;;;5029698;28;21031;-59
2022/07/04 09:18:29;;;;;;;3.43;2.53;;;26.10;1.00;;;;;;5030054;28;20443;-58
2022/07/04 09:20:57;;;;;;;3.90;3.00;;;26.40;1.00;;;;;;5030237;28;20502;-59
2022/07/04 09:23:29;;;;;;;4.33;2.30;;;26.50;1.00;;;;;;5029729;28;20947;-59
2022/07/04 09:26:14;;;;;;;3.30;3.00;;;26.50;1.00;;;;;;5030104;28;20435;-58
2022/07/04 09:28:43;;;;;;;3.73;2.40;;;26.40;1.00;;;;;;5029686;28;20790;-58
2022/07/04 09:31:20;;;;;;;6.37;5.73;;;26.60;1.00;;;;;;5029718;28;20490;-59
2022/07/04 09:33:49;;;;;;;3.87;2.70;;;26.60;1.00;;;;;;5029433;28;20509;-59
2022/07/04 09:36:16;;;;;;;3.17;2.87;;;26.30;1.00;;;;;;5029672;28;20459;-58
2022/07/04 09:38:43;;;;;;;4.20;2.90;;;26.10;1.00;;;;;;5048205;28;20928;-59
2022/07/04 09:44:05;;;;;;;7.43;4.50;;;26.60;1.00;;;;;;5030727;28;21015;-58
2022/07/04 09:46:31;;;;;;;3.20;2.80;;;26.90;1.00;;;;;;5027754;28;20496;-59
2022/07/04 09:48:57;;;;;;;3.67;2.67;;;26.80;1.00;;;;;;5032082;28;20485;-59
2022/07/04 09:51:43;;;;;;;2.73;2.53;;;27.10;1.00;;;;;;5033709;28;20447;-59
2022/07/04 09:54:15;;;;;;;4.20;2.53;;;27.20;1.00;;;;;;5033859;28;21131;-59
2022/07/04 09:56:49;;;;;;;2.80;2.60;;;27.10;1.00;;;;;;5033745;28;20413;-60
2022/07/04 09:59:15;;;;;;;2.53;2.30;;;27.40;1.00;;;;;;5033707;28;20427;-59
2022/07/04 10:01:41;;;;;;;2.83;2.50;;;27.50;1.00;;;;;;5034638;28;20804;-58
2022/07/04 10:04:07;;;;;;;3.93;2.33;;;28.00;1.00;;;;;;5052563;28;20183;-59
2022/07/04 10:06:33;;;;;;;2.70;2.50;;;28.20;1.00;;;;;;5053418;28;20962;-59
2022/07/04 10:09:16;;;;;;;2.90;2.70;;;27.90;1.00;;;;;;5053132;28;20430;-58
2022/07/04 10:11:45;;;;;;;3.00;2.20;;;28.20;1.00;;;;;;5053171;28;20485;-59
2022/07/04 10:14:12;;;;;;;2.70;2.50;;;27.90;1.00;;;;;;5037475;28;20439;-59
2022/07/04 10:16:39;;;;;;;4.13;2.80;;;26.80;1.00;;;;;;5033339;28;20431;-58
2022/07/04 10:19:05;;;;;;;2.73;2.53;;;28.00;1.00;;;;;;5037195;28;20442;-59
2022/07/04 10:21:32;;;;;;;4.70;2.50;;;27.90;1.00;;;;;;5053431;28;20497;-59
2022/07/04 10:23:58;;;;;;;4.40;2.43;;;27.90;1.00;;;;;;5044750;28;20855;-58
2022/07/04 10:26:26;;;;;;;2.70;2.50;;;28.00;1.00;;;;;;5033135;28;20410;-58
2022/07/04 10:28:52;;;;;;;6.40;2.90;;;27.90;1.00;;;;;;5035378;28;20550;-59
2022/07/04 10:31:22;;;;;;;4.30;2.37;;;28.20;1.00;;;;;;5032767;28;20547;-58
2022/07/04 10:33:48;;;;;;;2.37;2.17;;;28.40;1.00;;;;;;5033184;28;20515;-59
2022/07/04 10:36:14;;;;;;;2.40;2.20;;;28.40;1.00;;;;;;5035358;28;20979;-58
2022/07/04 10:38:51;;;;;;;4.53;2.40;;;28.30;1.00;;;;;;5032541;28;20443;-59
2022/07/04 10:41:20;;;;;;;2.67;2.33;;;28.30;1.00;;;;;;5032542;28;20547;-59
2022/07/04 10:44:13;;;;;;;2.60;2.40;;;28.00;1.00;;;;;;5032856;28;20452;-58
2022/07/04 10:46:47;;;;;;;5.00;4.23;;;28.20;1.00;;;;;;5039769;28;20437;-59
2022/07/04 10:49:17;;;;;;;4.57;2.57;;;28.20;1.00;;;;;;5053005;28;20989;-59
2022/07/04 10:51:54;;;;;;;2.67;2.10;;;28.20;1.00;;;;;;5038021;28;20418;-58
2022/07/04 10:54:32;;;;;;;3.33;2.50;;;28.40;1.00;;;;;;5030582;28;20975;-57
2022/07/04 10:57:21;;;;;;;2.50;2.27;;;28.70;1.00;;;;;;5032637;28;20932;-59
2022/07/04 10:59:56;;;;;;;6.03;2.37;;;28.70;1.00;;;;;;5032317;28;20442;-61
2022/07/04 11:02:30;;;;;;;4.97;2.53;;;28.90;1.00;;;;;;5048953;28;20935;-59
2022/07/04 11:05:06;;;;;;;3.17;2.40;;;28.50;1.00;;;;;;5052254;28;20438;-58
2022/07/04 11:07:35;;;;;;;2.73;2.53;;;28.30;1.00;;;;;;5051050;28;20442;-59
2022/07/04 11:10:15;;;;;;;3.80;2.40;;;28.40;1.00;;;;;;5047755;28;20521;-60
2022/07/04 11:12:56;;;;;;;2.93;2.33;;;28.40;1.00;;;;;;5038636;28;20442;-58
2022/07/04 11:15:30;;;;;;;2.53;2.33;;;28.30;1.00;;;;;;5033434;28;20976;-59
2022/07/04 11:18:10;;;;;;;4.03;2.10;;;28.30;1.00;;;;;;5032366;28;20782;-60
2022/07/04 11:20:41;;;;;;;2.63;2.10;;;28.40;1.00;;;;;;5032629;28;20434;-59
2022/07/04 11:23:08;;;;;;;2.50;2.30;;;28.70;1.00;;;;;;5037437;28;20436;-59
2022/07/04 11:25:34;;;;;;;4.50;2.37;;;28.70;1.00;;;;;;5035762;28;20511;-60
2022/07/04 11:28:26;;;;;;;2.90;2.60;;;28.80;1.00;;;;;;5048022;28;20573;-61
2022/07/04 11:30:52;;;;;;;2.40;2.20;;;29.00;1.00;;;;;;5034320;28;20212;-59
2022/07/04 11:33:20;;;;;;;2.90;2.70;;;28.70;1.00;;;;;;5045142;28;20430;-61
2022/07/04 11:36:00;;;;;;;3.10;2.33;;;28.70;1.00;;;;;;5035699;28;22005;-59
2022/07/04 11:38:45;;;;;;;5.70;2.43;;;28.80;1.00;;;;;;5044676;28;20454;-59
2022/07/04 11:46:39;;;;;;;5.27;2.23;;;28.80;1.00;;;;;;5035179;28;20538;-60
2022/07/04 11:49:12;;;;;;;2.37;2.17;;;28.50;1.00;;;;;;5038202;28;20462;-59
2022/07/04 11:51:47;;;;;;;4.03;2.40;;;28.50;1.00;;;;;;5048766;28;20192;-59
2022/07/04 11:54:13;;;;;;;2.57;2.33;;;28.20;1.00;;;;;;5040558;28;21001;-60
2022/07/04 11:56:38;;;;;;;3.27;2.30;;;28.30;1.00;;;;;;5034257;28;20406;-60
2022/07/04 11:59:12;;;;;;;2.30;2.10;;;28.20;1.00;;;;;;5048792;28;20523;-59
2022/07/04 12:01:39;;;;;;;3.50;2.20;;;28.50;1.00;;;;;;5046206;28;20224;-60
2022/07/04 12:04:16;;;;;;;2.13;1.93;;;28.80;1.00;;;;;;5033409;28;20475;-60
2022/07/04 12:06:42;;;;;;;3.17;2.40;;;28.90;1.00;;;;;;5050217;28;20434;-59
2022/07/04 12:09:08;;;;;;;5.37;2.03;;;29.20;1.00;;;;;;5037332;28;20439;-59
2022/07/04 12:11:57;;;;;;;2.90;2.17;;;29.50;1.00;;;;;;5038915;28;20444;-60
2022/07/04 12:15:08;;;;;;;2.47;2.13;;;29.60;1.00;;;;;;5039209;28;20498;-59
2022/07/04 12:18:12;;;;;;;;;;;;;;;;;;;;;
2022/07/04 12:20:38;;;;;;;2.20;1.90;;;29.00;1.00;;;;;;5038958;28;20501;-60
2022/07/04 12:23:04;;;;;;;3.33;2.10;;;29.40;1.00;;;;;;5034776;28;20434;-59
2022/07/04 12:25:37;;;;;;;2.33;2.13;;;29.60;1.00;;;;;;5045281;28;20192;-59
2022/07/04 12:28:07;;;;;;;3.60;2.40;;;29.50;1.00;;;;;;5042789;28;20585;-59
2022/07/04 12:30:39;;;;;;;2.70;1.90;;;29.40;1.00;;;;;;5029590;28;20478;-59
2022/07/04 12:33:06;;;;;;;3.07;2.50;;;29.40;1.00;;;;;;5042479;28;20452;-59
2022/07/04 12:35:33;;;;;;;1.87;1.77;;;29.70;1.00;;;;;;5046420;28;20560;-59
2022/07/04 12:38:16;;;;;;;2.30;2.00;;;29.70;1.00;;;;;;5042975;28;20438;-60
2022/07/04 12:40:55;;;;;;;2.10;1.90;;;29.50;1.00;;;;;;5050818;28;20445;-61
2022/07/04 12:43:23;;;;;;;2.50;1.83;;;29.50;1.00;;;;;;5040844;28;20450;-59
2022/07/04 12:45:51;;;;;;;1.90;1.80;;;29.40;1.00;;;;;;5034050;28;20443;-60
2022/07/04 12:48:18;;;;;;;2.47;2.03;;;29.20;1.00;;;;;;5033024;28;20443;-58
2022/07/04 12:50:44;;;;;;;2.40;2.20;;;28.80;1.00;;;;;;5041121;28;20440;-59
2022/07/04 12:53:10;;;;;;;2.53;2.00;;;28.30;1.00;;;;;;5033786;28;20458;-60
2022/07/04 12:55:39;;;;;;;2.10;2.00;;;28.30;1.00;;;;;;5038976;28;20215;-58
2022/07/04 12:58:05;;;;;;;2.00;1.87;;;27.90;1.00;;;;;;5051142;28;20646;-58
2022/07/04 13:00:30;;;;;;;2.67;1.80;;;28.00;1.00;;;;;;5042463;28;20470;-59
2022/07/04 13:02:56;;;;;;;2.70;1.90;;;28.20;1.00;;;;;;5045626;28;20189;-59
2022/07/04 13:05:22;;;;;;;4.00;1.80;;;28.20;1.00;;;;;;5045706;28;20573;-59
2022/07/04 13:07:47;;;;;;;1.80;1.70;;;28.40;1.00;;;;;;5050594;28;20211;-59
2022/07/04 13:10:13;;;;;;;2.17;2.00;;;28.50;1.00;;;;;;5037772;28;20192;-59
2022/07/04 13:12:38;;;;;;;2.70;2.50;;;28.50;1.00;;;;;;5050624;28;20203;-59
2022/07/04 13:15:05;;;;;;;4.07;2.30;;;28.30;1.00;;;;;;5050667;28;20276;-58
2022/07/04 13:17:31;;;;;;;3.10;2.90;;;28.50;1.00;;;;;;5032775;28;20184;-59
2022/07/04 13:19:56;;;;;;;2.80;2.10;;;28.40;1.00;;;;;;5030430;28;21133;-60
2022/07/04 13:22:23;;;;;;;4.27;3.03;;;28.50;1.00;;;;;;5034583;28;20227;-59